createdAt,value
2019-04-05T00:02:22.410Z,92121.34
2019-04-05T00:04:50.680Z,92119.54
2019-04-05T00:07:18.931Z,92116.42
2019-04-05T00:09:47.207Z,92114.09
2019-04-05T00:12:15.459Z,92117.72
2019-04-05T00:14:43.733Z,92125.23
2019-04-05T00:17:11.994Z,92119.76
2019-04-05T00:19:40.330Z,92116.66
2019-04-05T00:22:08.578Z,92109.42
2019-04-05T00:24:36.858Z,92115.44
2019-04-05T00:27:05.167Z,92110.24
2019-04-05T00:29:33.442Z,92115.67
2019-04-05T00:32:01.747Z,92109.99
2019-04-05T00:34:30.017Z,92111.27
2019-04-05T00:36:58.262Z,92105.33
2019-04-05T00:39:26.553Z,92105.56
2019-04-05T00:41:54.816Z,92106.84
2019-04-05T00:44:23.095Z,92099.34
2019-04-05T00:46:51.341Z,92101.16
2019-04-05T00:49:19.616Z,92099.09
2019-04-05T00:51:47.894Z,92092.64
2019-04-05T00:54:16.168Z,92101.42
2019-04-05T00:56:44.417Z,92105.83
2019-04-05T00:59:12.805Z,92114.11
2019-04-05T01:01:41.061Z,92113.56
2019-04-05T01:04:09.404Z,92111.50
2019-04-05T01:06:38.655Z,92111.52
2019-04-05T01:09:07.840Z,92112.55
2019-04-05T01:11:36.090Z,92112.23
2019-04-05T01:14:04.362Z,92105.27
2019-04-05T01:16:32.627Z,92105.03
2019-04-05T01:19:03.871Z,92105.80
2019-04-05T01:21:36.803Z,92107.88
2019-04-05T01:24:05.040Z,92104.25
2019-04-05T01:26:33.307Z,92104.75
2019-04-05T01:29:02.577Z,92102.41
2019-04-05T01:31:30.846Z,92099.27
2019-04-05T01:33:59.098Z,92106.24
2019-04-05T01:36:27.365Z,92099.03
2019-04-05T01:38:55.619Z,92101.64
2019-04-05T01:41:23.936Z,92104.75
2019-04-05T01:43:52.211Z,92114.89
2019-04-05T01:46:20.483Z,92103.52
2019-04-05T01:48:48.721Z,92097.53
2019-04-05T01:51:16.989Z,92098.05
2019-04-05T01:53:45.307Z,92097.78
2019-04-05T01:56:13.583Z,92093.62
2019-04-05T01:58:41.825Z,92104.97
2019-04-05T02:01:10.101Z,92102.94
2019-04-05T02:03:38.349Z,92111.21
2019-04-05T02:06:06.616Z,92113.50
2019-04-05T02:08:34.882Z,92113.20
2019-04-05T02:11:03.176Z,92107.22
2019-04-05T02:13:31.430Z,92110.84
2019-04-05T02:16:06.327Z,92107.75
2019-04-05T02:18:30.359Z,92103.91
2019-04-05T02:20:58.637Z,92105.21
2019-04-05T02:23:26.885Z,92101.33
2019-04-05T02:25:55.161Z,92103.72
2019-04-05T02:28:25.487Z,92112.09
2019-04-05T02:30:53.413Z,92112.09
2019-04-05T02:33:21.668Z,92115.15
2019-04-05T02:35:49.941Z,92116.67
2019-04-05T02:38:18.197Z,92118.01
2019-04-05T02:40:46.464Z,92118.02
2019-04-05T02:43:14.712Z,92120.56
2019-04-05T02:45:42.961Z,92128.37
2019-04-05T02:48:11.235Z,92125.02
2019-04-05T02:50:41.289Z,92119.05
2019-04-05T02:53:09.575Z,92112.80
2019-04-05T02:55:38.955Z,92111.77
2019-04-05T02:58:07.251Z,92109.69
2019-04-05T03:00:35.514Z,92115.62
2019-04-05T03:03:04.182Z,92118.25
2019-04-05T03:05:32.413Z,92123.17
2019-04-05T03:08:00.706Z,92127.64
2019-04-05T03:11:05.616Z,92129.94
2019-04-05T03:13:36.059Z,92136.91
2019-04-05T03:16:06.843Z,92144.20
2019-04-05T03:18:38.756Z,92143.69
2019-04-05T03:21:07.780Z,92142.16
2019-04-05T03:23:39.279Z,92144.73
2019-04-05T03:26:08.935Z,92144.46
2019-04-05T03:28:37.987Z,92144.23
2019-04-05T03:31:06.267Z,92143.21
2019-04-05T03:33:34.586Z,92136.00
2019-04-05T03:36:02.890Z,92141.41
2019-04-05T03:38:31.373Z,92141.94
2019-04-05T03:40:59.643Z,92133.92
2019-04-05T03:43:27.904Z,92131.09
2019-04-05T03:45:56.168Z,92134.70
2019-04-05T03:48:24.446Z,92137.04
2019-04-05T03:50:52.707Z,92126.95
2019-04-05T03:53:21.065Z,92135.23
2019-04-05T03:55:49.478Z,92138.09
2019-04-05T03:58:17.763Z,92133.67
2019-04-05T04:00:46.091Z,92136.27
2019-04-05T04:03:14.388Z,92137.84
2019-04-05T04:05:42.644Z,92139.88
2019-04-05T04:08:10.932Z,92136.27
2019-04-05T04:10:39.186Z,92141.18
2019-04-05T04:13:07.554Z,92144.02
2019-04-05T04:15:35.805Z,92141.66
2019-04-05T04:18:04.074Z,92139.06
2019-04-05T04:20:46.838Z,92140.32
2019-04-05T04:23:15.122Z,92136.46
2019-04-05T04:25:43.461Z,92136.47
2019-04-05T04:28:11.758Z,92128.47
2019-04-05T04:30:40.074Z,92128.45
2019-04-05T04:33:16.709Z,92135.96
2019-04-05T04:35:44.953Z,92130.28
2019-04-05T04:38:13.236Z,92132.84
2019-04-05T04:40:41.786Z,92138.23
2019-04-05T04:43:10.608Z,92130.48
2019-04-05T04:45:38.864Z,92132.52
2019-04-05T04:48:07.160Z,92133.61
2019-04-05T04:50:35.406Z,92125.05
2019-04-05T04:53:03.680Z,92128.37
2019-04-05T04:55:31.942Z,92124.24
2019-04-05T04:58:00.211Z,92122.95
2019-04-05T05:00:28.461Z,92120.37
2019-04-05T05:02:56.736Z,92118.55
2019-04-05T05:05:25.230Z,92130.20
2019-04-05T05:07:53.578Z,92124.76
2019-04-05T05:10:21.834Z,92119.81
2019-04-05T05:12:50.142Z,92114.33
2019-04-05T05:15:18.426Z,92116.37
2019-04-05T05:17:58.089Z,92120.23
2019-04-05T05:20:16.661Z,92126.97
2019-04-05T05:22:44.914Z,92126.45
2019-04-05T05:25:15.375Z,92128.78
2019-04-05T05:27:43.585Z,92129.03
2019-04-05T05:30:12.118Z,92127.80
2019-04-05T05:32:40.433Z,92123.68
2019-04-05T05:35:08.702Z,92126.27
2019-04-05T05:37:36.956Z,92123.12
2019-04-05T05:40:06.851Z,92122.36
2019-04-05T05:42:35.099Z,92126.72
2019-04-05T05:45:04.603Z,92132.16
2019-04-05T05:47:32.844Z,92129.55
2019-04-05T05:50:01.143Z,92130.52
2019-04-05T05:52:29.478Z,92134.92
2019-04-05T05:54:57.817Z,92139.84
2019-04-05T05:57:26.425Z,92140.36
2019-04-05T05:59:54.842Z,92147.59
2019-04-05T06:02:23.104Z,92143.45
2019-04-05T06:04:51.381Z,92144.98
2019-04-05T06:07:20.198Z,92144.20
2019-04-05T06:09:48.500Z,92150.91
2019-04-05T06:12:16.751Z,92146.23
2019-04-05T06:14:45.177Z,92144.94
2019-04-05T06:17:14.256Z,92150.09
2019-04-05T06:19:42.585Z,92144.88
2019-04-05T06:22:10.851Z,92139.42
2019-04-05T06:24:39.149Z,92140.44
2019-04-05T06:27:07.503Z,92144.02
2019-04-05T06:29:35.792Z,92146.33
2019-04-05T06:32:04.148Z,92143.69
2019-04-05T06:34:32.455Z,92141.28
2019-04-05T06:37:00.716Z,92134.74
2019-04-05T06:39:28.974Z,92137.02
2019-04-05T06:41:57.350Z,92133.86
2019-04-05T06:44:27.960Z,92134.64
2019-04-05T06:46:57.275Z,92127.84
2019-04-05T06:49:25.606Z,92135.87
2019-04-05T06:51:53.882Z,92133.09
2019-04-05T06:54:22.173Z,92136.70
2019-04-05T06:56:50.462Z,92135.30
2019-04-05T06:59:19.430Z,92130.04
2019-04-05T07:01:47.955Z,92137.02
2019-04-05T07:04:16.224Z,92133.31
2019-04-05T07:06:44.518Z,92134.94
2019-04-05T07:09:12.972Z,92137.16
2019-04-05T07:11:41.290Z,92130.34
2019-04-05T07:14:09.549Z,92128.37
2019-04-05T07:16:37.817Z,92130.42
2019-04-05T07:19:06.085Z,92130.97
2019-04-05T07:21:34.479Z,92127.37
2019-04-05T07:24:02.799Z,92136.08
2019-04-05T07:26:31.089Z,92136.08
2019-04-05T07:28:59.403Z,92132.97
2019-04-05T07:31:27.745Z,92131.30
2019-04-05T07:33:56.341Z,92143.39
2019-04-05T07:36:24.831Z,92140.19
2019-04-05T07:38:53.163Z,92135.25
2019-04-05T07:41:21.471Z,92133.59
2019-04-05T07:43:49.987Z,92128.34
2019-04-05T07:46:18.341Z,92122.89
2019-04-05T07:48:46.639Z,92122.97
2019-04-05T07:51:14.931Z,92122.23
2019-04-05T07:53:44.699Z,92121.33
2019-04-05T07:56:12.974Z,92119.08
2019-04-05T07:58:41.231Z,92120.77
2019-04-05T08:01:09.583Z,92117.84
2019-04-05T08:03:37.914Z,92113.26
2019-04-05T08:06:06.188Z,92120.16
2019-04-05T08:08:43.609Z,92124.96
2019-04-05T08:11:11.907Z,92125.14
2019-04-05T08:13:40.806Z,92120.69
2019-04-05T08:16:09.097Z,92116.25
2019-04-05T08:18:37.362Z,92120.75
2019-04-05T08:21:05.623Z,92119.03
2019-04-05T08:23:33.981Z,92118.14
2019-04-05T08:26:02.321Z,92121.20
2019-04-05T08:28:30.668Z,92123.42
2019-04-05T08:30:58.998Z,92129.49
2019-04-05T08:33:33.065Z,92127.37
2019-04-05T08:36:01.312Z,92127.73
2019-04-05T08:38:29.598Z,92124.48
2019-04-05T08:40:57.851Z,92127.93
2019-04-05T08:43:26.195Z,92122.97
2019-04-05T08:45:56.523Z,92125.79
2019-04-05T08:48:25.002Z,92122.05
2019-04-05T08:50:53.271Z,92123.75
2019-04-05T08:53:21.626Z,92123.95
2019-04-05T08:55:50.000Z,92120.94
2019-04-05T08:58:18.363Z,92120.69
2019-04-05T09:00:46.769Z,92121.00
2019-04-05T09:03:15.052Z,92115.09
2019-04-05T09:05:43.379Z,92115.33
2019-04-05T09:08:11.698Z,92119.23
2019-04-05T09:10:39.960Z,92113.75
2019-04-05T09:13:08.447Z,92114.33
2019-04-05T09:15:36.704Z,92113.25
2019-04-05T09:18:04.973Z,92106.58
2019-04-05T09:20:33.204Z,92109.34
2019-04-05T09:23:01.563Z,92106.05
2019-04-05T09:25:29.810Z,92106.55
2019-04-05T09:27:58.101Z,92110.66
2019-04-05T09:30:26.346Z,92097.33
2019-04-05T09:32:54.695Z,92090.95
2019-04-05T09:35:23.152Z,92105.04
2019-04-05T09:37:51.435Z,92100.66
2019-04-05T09:40:21.147Z,92095.02
2019-04-05T09:42:49.632Z,92086.79
2019-04-05T09:45:17.915Z,92089.22
2019-04-05T09:47:46.158Z,92089.80
2019-04-05T09:50:14.438Z,92092.36
2019-04-05T09:52:42.714Z,92095.26
2019-04-05T09:55:10.998Z,92087.95
2019-04-05T09:57:39.244Z,92085.80
2019-04-05T10:00:09.709Z,92089.27
2019-04-05T10:02:46.236Z,92092.95
2019-04-05T10:05:14.523Z,92087.22
2019-04-05T10:07:54.100Z,92082.61
2019-04-05T10:10:12.772Z,92079.35
2019-04-05T10:12:41.015Z,92081.28
2019-04-05T10:15:09.315Z,92076.85
2019-04-05T10:17:37.584Z,92077.50
2019-04-05T10:20:08.747Z,92074.48
2019-04-05T10:22:37.001Z,92070.70
2019-04-05T10:25:08.227Z,92068.80
2019-04-05T10:27:36.499Z,92065.30
2019-04-05T10:30:12.300Z,92066.07
2019-04-05T10:32:40.566Z,92060.61
2019-04-05T10:35:08.849Z,92060.80
2019-04-05T10:37:37.860Z,92056.24
2019-04-05T10:40:07.148Z,92058.14
2019-04-05T10:42:36.438Z,92055.16
2019-04-05T10:45:09.299Z,92059.61
2019-04-05T10:47:37.542Z,92050.23
2019-04-05T10:50:10.708Z,92060.03
2019-04-05T10:52:38.967Z,92063.00
2019-04-05T10:55:07.743Z,92062.16
2019-04-05T10:57:36.029Z,92057.78
2019-04-05T11:00:07.116Z,92063.10
2019-04-05T11:02:35.359Z,92064.89
2019-04-05T11:05:04.001Z,92052.13
2019-04-05T11:07:34.923Z,92052.02
2019-04-05T11:10:02.349Z,92053.98
2019-04-05T11:12:30.598Z,92052.89
2019-04-05T11:14:58.951Z,92044.24
2019-04-05T11:17:27.227Z,92054.56
2019-04-05T11:19:55.518Z,92052.80
2019-04-05T11:22:23.810Z,92052.67
2019-04-05T11:24:52.172Z,92055.40
2019-04-05T11:27:20.691Z,92052.45
2019-04-05T11:29:48.938Z,92054.05
2019-04-05T11:32:17.225Z,92044.15
2019-04-05T11:34:45.488Z,92047.94
2019-04-05T11:37:13.770Z,92044.66
2019-04-05T11:39:42.032Z,92042.17
2019-04-05T11:42:10.427Z,92043.48
2019-04-05T11:44:38.686Z,92041.62
2019-04-05T11:47:06.962Z,92041.62
2019-04-05T11:49:35.212Z,92039.73
2019-04-05T11:52:03.512Z,92032.03
2019-04-05T11:54:31.802Z,92039.44
2019-04-05T11:57:00.088Z,92037.50
2019-04-05T11:59:28.362Z,92033.48
2019-04-05T12:01:58.391Z,92033.50
2019-04-05T12:04:26.650Z,92025.78
2019-04-05T12:06:54.993Z,92025.84
2019-04-05T12:09:23.252Z,92029.95
2019-04-05T12:11:51.534Z,92032.85
2019-04-05T12:14:29.701Z,92032.33
2019-04-05T12:16:49.777Z,92025.41
2019-04-05T12:19:18.035Z,92021.86
2019-04-05T12:21:46.456Z,92017.53
2019-04-05T12:24:14.732Z,92022.39
2019-04-05T12:26:43.074Z,92013.78
2019-04-05T12:29:11.397Z,92010.06
2019-04-05T12:31:39.686Z,92011.31
2019-04-05T12:34:08.009Z,92008.70
2019-04-05T12:36:36.285Z,92015.09
2019-04-05T12:39:08.225Z,92013.14
2019-04-05T12:41:40.400Z,92014.77
2019-04-05T12:44:06.753Z,92008.60
2019-04-05T12:46:35.118Z,92001.55
2019-04-05T12:49:03.408Z,92004.78
2019-04-05T12:51:31.684Z,91999.55
2019-04-05T12:53:59.960Z,91995.76
2019-04-05T12:56:28.246Z,92004.16
2019-04-05T12:58:56.748Z,91997.68
2019-04-05T13:01:25.119Z,91998.90
2019-04-05T13:03:53.483Z,91996.22
2019-04-05T13:06:22.714Z,91993.89
2019-04-05T13:08:51.519Z,91988.19
2019-04-05T13:11:19.928Z,91988.56
2019-04-05T13:13:48.220Z,91985.67
2019-04-05T13:16:16.480Z,91980.00
2019-04-05T13:18:44.758Z,91970.44
2019-04-05T13:21:15.685Z,91972.64
2019-04-05T13:23:43.188Z,91974.37
2019-04-05T13:26:12.411Z,91974.09
2019-04-05T13:28:40.866Z,91981.33
2019-04-05T13:31:09.238Z,91981.16
2019-04-05T13:33:37.549Z,91980.62
2019-04-05T13:36:08.318Z,91977.67
2019-04-05T13:38:35.959Z,91977.67
2019-04-05T13:41:04.269Z,91972.41
2019-04-05T13:43:32.763Z,91975.08
2019-04-05T13:46:06.935Z,91975.58
2019-04-05T13:48:35.256Z,91974.06
2019-04-05T13:51:03.516Z,91970.59
2019-04-05T13:53:31.839Z,91966.49
2019-04-05T13:56:00.217Z,91963.45
2019-04-05T13:58:28.750Z,91957.72
2019-04-05T14:00:57.026Z,91970.34
2019-04-05T14:03:25.293Z,91966.19
2019-04-05T14:05:55.258Z,91967.81
2019-04-05T14:08:23.954Z,91955.37
2019-04-05T14:10:52.207Z,91957.89
2019-04-05T14:13:20.538Z,91956.62
2019-04-05T14:15:48.812Z,91955.84
2019-04-05T14:18:17.103Z,91947.13
2019-04-05T14:20:45.436Z,91949.19
2019-04-05T14:23:13.787Z,91948.61
2019-04-05T14:25:42.115Z,91945.08
2019-04-05T14:28:10.409Z,91943.58
2019-04-05T14:30:38.692Z,91948.30
2019-04-05T14:33:06.996Z,91942.53
2019-04-05T14:35:35.269Z,91943.13
2019-04-05T14:38:03.599Z,91929.91
2019-04-05T14:40:33.141Z,91940.73
2019-04-05T14:43:01.495Z,91944.09
2019-04-05T14:45:29.782Z,91936.87
2019-04-05T14:47:58.630Z,91930.82
2019-04-05T14:50:28.216Z,91928.32
2019-04-05T14:53:00.786Z,91927.77
2019-04-05T14:55:27.629Z,91928.63
2019-04-05T14:57:57.324Z,91929.45
2019-04-05T15:00:25.628Z,91927.80
2019-04-05T15:02:53.892Z,91933.02
2019-04-05T15:05:22.223Z,91933.87
2019-04-05T15:07:51.168Z,91931.54
2019-04-05T15:10:20.109Z,91930.67
2019-04-05T15:12:48.398Z,91921.24
2019-04-05T15:15:16.698Z,91923.66
2019-04-05T15:17:48.173Z,91927.09
2019-04-05T15:20:15.327Z,91928.64
2019-04-05T15:22:43.597Z,91928.98
2019-04-05T15:25:11.981Z,91924.55
2019-04-05T15:27:40.388Z,91926.47
2019-04-05T15:30:08.715Z,91930.91
2019-04-05T15:32:37.848Z,91934.75
2019-04-05T15:35:07.851Z,91925.31
2019-04-05T15:37:37.729Z,91932.16
2019-04-05T15:40:07.646Z,91934.63
2019-04-05T15:42:35.997Z,91931.72
2019-04-05T15:45:06.722Z,91937.11
2019-04-05T15:47:35.020Z,91945.14
2019-04-05T15:50:03.547Z,91943.89
2019-04-05T15:52:32.187Z,91940.36
2019-04-05T15:55:01.751Z,91946.98
2019-04-05T15:57:33.459Z,91943.82
2019-04-05T16:00:03.683Z,91950.13
2019-04-05T16:02:33.009Z,91946.38
2019-04-05T16:05:00.548Z,91948.15
2019-04-05T16:07:28.823Z,91949.14
2019-04-05T16:09:57.669Z,91955.45
2019-04-05T16:12:26.081Z,91958.99
2019-04-05T16:14:54.371Z,91962.08
2019-04-05T16:17:22.806Z,91962.69
2019-04-05T16:19:51.103Z,91971.69
2019-04-05T16:22:30.785Z,91965.67
2019-04-05T16:24:49.398Z,91972.30
2019-04-05T16:27:17.687Z,91975.82
2019-04-05T16:29:45.951Z,91976.05
2019-04-05T16:32:14.937Z,91977.49
2019-04-05T16:34:43.190Z,91981.88
2019-04-05T16:37:11.481Z,91981.92
2019-04-05T16:39:39.746Z,91984.77
2019-04-05T16:42:10.178Z,91985.01
2019-04-05T16:44:38.019Z,91987.80
2019-04-05T16:47:06.386Z,91989.95
2019-04-05T16:49:34.715Z,91986.49
2019-04-05T16:52:03.008Z,91983.41
2019-04-05T16:54:31.270Z,91988.92
2019-04-05T16:56:59.550Z,91991.77
2019-04-05T16:59:27.871Z,91992.02
2019-04-05T17:01:56.869Z,91997.79
2019-04-05T17:04:25.237Z,91998.31
2019-04-05T17:06:53.497Z,92008.77
2019-04-05T17:09:21.761Z,92006.53
2019-04-05T17:11:50.027Z,92013.89
2019-04-05T17:14:19.246Z,92017.77
2019-04-05T17:16:47.531Z,92018.28
2019-04-05T17:19:15.799Z,92017.98
2019-04-05T17:21:44.060Z,92017.66
2019-04-05T17:24:12.349Z,92014.53
2019-04-05T17:26:40.620Z,92015.20
2019-04-05T17:29:09.464Z,92013.89
2019-04-05T17:31:37.722Z,92014.06
2019-04-05T17:34:05.992Z,92017.43
2019-04-05T17:36:34.249Z,92025.75
2019-04-05T17:39:02.535Z,92023.39
2019-04-05T17:41:30.864Z,92027.03
2019-04-05T17:43:59.265Z,92022.81
2019-04-05T17:46:27.509Z,92029.81
2019-04-05T17:48:55.788Z,92038.95
2019-04-05T17:51:24.028Z,92036.22
2019-04-05T17:53:52.417Z,92038.83
2019-04-05T17:56:20.672Z,92040.86
2019-04-05T17:58:49.610Z,92047.16
2019-04-05T18:01:17.899Z,92040.52
2019-04-05T18:03:46.193Z,92046.57
2019-04-05T18:06:14.475Z,92040.00
2019-04-05T18:08:48.577Z,92039.77
2019-04-05T18:11:16.827Z,92039.77
2019-04-05T18:13:45.098Z,92043.45
2019-04-05T18:16:13.379Z,92049.38
2019-04-05T18:18:41.743Z,92047.12
2019-04-05T18:21:09.991Z,92046.37
2019-04-05T18:23:38.308Z,92049.34
2019-04-05T18:26:06.578Z,92052.66
2019-04-05T18:28:35.988Z,92059.02
2019-04-05T18:31:05.871Z,92061.45
2019-04-05T18:33:34.101Z,92065.66
2019-04-05T18:36:02.349Z,92064.25
2019-04-05T18:38:30.606Z,92067.64
2019-04-05T18:40:58.983Z,92066.37
2019-04-05T18:43:27.233Z,92068.08
2019-04-05T18:45:55.578Z,92066.19
2019-04-05T18:48:24.409Z,92074.37
2019-04-05T18:50:52.701Z,92076.88
2019-04-05T18:53:21.032Z,92082.20
2019-04-05T18:55:49.333Z,92077.02
2019-04-05T18:58:17.601Z,92081.48
2019-04-05T19:00:45.939Z,92088.35
2019-04-05T19:03:14.188Z,92087.35
2019-04-05T19:05:42.503Z,92095.94
2019-04-05T19:08:10.840Z,92097.10
2019-04-05T19:10:39.137Z,92100.02
2019-04-05T19:13:07.402Z,92098.06
2019-04-05T19:15:35.672Z,92103.38
2019-04-05T19:18:03.926Z,92102.73
2019-04-05T19:20:32.200Z,92104.44
2019-04-05T19:23:00.455Z,92104.02
2019-04-05T19:25:28.766Z,92102.41
2019-04-05T19:27:57.026Z,92102.23
2019-04-05T19:50:25.352Z,92099.42
2019-04-05T19:52:53.607Z,92099.63
2019-04-05T19:55:21.960Z,92101.83
2019-04-05T19:57:50.220Z,92101.25
2019-04-05T20:00:19.176Z,92103.03
2019-04-05T20:02:47.450Z,92107.56
2019-04-05T20:05:15.730Z,92108.35
2019-04-05T20:07:43.992Z,92104.87
2019-04-05T20:10:12.267Z,92112.22
2019-04-05T20:12:40.526Z,92110.14
2019-04-05T20:15:08.808Z,92112.17
2019-04-05T20:17:37.060Z,92115.13
2019-04-05T20:20:08.356Z,92116.94
2019-04-05T20:22:36.645Z,92123.46
2019-04-05T20:25:07.887Z,92122.98
2019-04-05T20:27:36.174Z,92119.14
2019-04-05T20:30:06.634Z,92121.88
2019-04-05T20:32:34.974Z,92123.25
2019-04-05T20:35:03.245Z,92123.19
2019-04-05T20:37:31.519Z,92127.09
2019-04-05T20:39:59.844Z,92123.91
2019-04-05T20:42:28.202Z,92125.45
2019-04-05T20:44:56.451Z,92122.61
2019-04-05T20:47:24.725Z,92126.41
2019-04-05T20:50:01.910Z,92118.17
2019-04-05T20:52:30.164Z,92125.28
2019-04-05T20:54:58.425Z,92126.59
2019-04-05T20:57:26.731Z,92126.38
2019-04-05T20:59:55.060Z,92118.45
2019-04-05T21:02:23.414Z,92120.58
2019-04-05T21:04:51.669Z,92122.36
2019-04-05T21:07:19.938Z,92115.60
2019-04-05T21:09:48.589Z,92116.19
2019-04-05T21:12:16.886Z,92112.44
2019-04-05T21:14:45.151Z,92118.72
2019-04-05T21:17:13.421Z,92117.96
2019-04-05T21:19:41.673Z,92119.50
2019-04-05T21:22:10.031Z,92119.80
2019-04-05T21:24:38.285Z,92124.91
2019-04-05T21:27:06.558Z,92124.45
2019-04-05T21:29:34.812Z,92128.27
2019-04-05T21:32:03.167Z,92126.39
2019-04-05T21:34:31.494Z,92130.72
2019-04-05T21:36:59.778Z,92128.45
2019-04-05T21:39:28.864Z,92128.20
2019-04-05T21:41:57.129Z,92132.91
2019-04-05T21:44:25.393Z,92131.54
2019-04-05T21:46:53.668Z,92128.89
2019-04-05T21:49:21.932Z,92120.78
2019-04-05T21:51:50.212Z,92128.81
2019-04-05T21:54:18.461Z,92135.16
2019-04-05T21:56:46.721Z,92131.77
2019-04-05T21:59:15.013Z,92131.28
2019-04-05T22:01:43.266Z,92136.73
2019-04-05T22:04:11.550Z,92136.36
2019-04-05T22:06:39.812Z,92136.36
2019-04-05T22:09:12.317Z,92138.91
2019-04-05T22:11:40.584Z,92142.39
2019-04-05T22:14:08.858Z,92147.36
2019-04-05T22:16:37.110Z,92144.94
2019-04-05T22:19:05.449Z,92139.91
2019-04-05T22:21:33.713Z,92139.78
2019-04-05T22:24:01.986Z,92144.27
2019-04-05T22:26:30.384Z,92148.90
2019-04-05T22:28:58.657Z,92151.02
2019-04-05T22:31:26.911Z,92158.61
2019-04-05T22:33:55.227Z,92149.80
2019-04-05T22:36:23.488Z,92154.84
2019-04-05T22:38:51.759Z,92159.30
2019-04-05T22:41:20.009Z,92150.02
2019-04-05T22:43:48.297Z,92154.16
2019-04-05T22:46:16.555Z,92157.77
2019-04-05T22:48:44.836Z,92162.73
2019-04-05T22:51:13.093Z,92167.42
2019-04-05T22:53:41.370Z,92162.86
2019-04-05T22:56:10.556Z,92161.61
2019-04-05T22:58:38.837Z,92158.52
2019-04-05T23:01:07.103Z,92156.67
2019-04-05T23:03:35.385Z,92150.25
2019-04-05T23:06:03.662Z,92154.28
2019-04-05T23:08:31.949Z,92154.11
2019-04-05T23:11:00.203Z,92158.26
2019-04-05T23:13:28.486Z,92160.14
2019-04-05T23:15:56.745Z,92154.52
2019-04-05T23:18:25.032Z,92162.98
2019-04-05T23:20:53.276Z,92158.48
2019-04-05T23:23:21.553Z,92156.51
2019-04-05T23:25:49.873Z,92153.91
2019-04-05T23:28:18.149Z,92156.30
2019-04-05T23:30:46.417Z,92161.93
2019-04-05T23:33:14.689Z,92160.44
2019-04-05T23:35:42.935Z,92167.23
2019-04-05T23:38:11.219Z,92167.34
2019-04-05T23:40:39.486Z,92174.66
2019-04-05T23:43:07.761Z,92179.34
2019-04-05T23:45:36.030Z,92175.25
2019-04-05T23:48:04.278Z,92165.45
2019-04-05T23:50:32.572Z,92171.70
2019-04-05T23:53:00.827Z,92176.16
2019-04-05T23:55:33.449Z,92172.86
2019-04-05T23:57:59.730Z,92171.07
